Time;durP1;ratioP1;P1;durP2;ratioP2;P2;SDS_P1;SDS_P2;PMS_P1;PMS_P2;Temp;Humidity;BMP_temperature;BMP_pressure;BME280_temperature;BME280_humidity;BME280_pressure;Samples;Min_cycle;Max_cycle;Signal;HPM_P1;HPM_P2
2021/04/16 05:06:20;;;;;;;13.40;5.10;;;6.30;70.20;;;;;;4977150;28;20096;-90
2021/04/16 05:08:46;;;;;;;16.13;5.80;;;6.30;71.00;;;;;;4926443;29;20046;-89
2021/04/16 05:11:12;;;;;;;13.40;5.13;;;6.30;70.30;;;;;;4927686;29;20115;-89
2021/04/16 05:13:38;;;;;;;14.13;5.03;;;6.30;70.30;;;;;;4927596;29;20034;-90
2021/04/16 05:16:04;;;;;;;16.03;5.67;;;6.30;70.20;;;;;;4930259;29;20394;-90
2021/04/16 05:18:29;;;;;;;15.43;5.60;;;6.30;70.20;;;;;;4927744;29;20020;-89
2021/04/16 05:20:55;;;;;;;15.23;5.67;;;6.30;70.20;;;;;;4926928;29;20039;-89
2021/04/16 05:23:21;;;;;;;15.10;5.70;;;6.30;70.30;;;;;;4927920;29;20035;-88
2021/04/16 05:25:47;;;;;;;14.90;5.40;;;6.30;70.30;;;;;;4926283;29;20030;-89
2021/04/16 05:28:13;;;;;;;13.70;5.33;;;6.30;70.40;;;;;;4926146;29;20024;-86
2021/04/16 05:30:38;;;;;;;15.67;5.53;;;6.30;70.50;;;;;;4922326;29;20123;-84
2021/04/16 05:33:04;;;;;;;15.80;5.37;;;6.40;70.50;;;;;;4927280;29;20031;-89
2021/04/16 05:35:30;;;;;;;14.77;5.70;;;6.40;70.50;;;;;;4925638;29;20042;-88
2021/04/16 05:37:57;;;;;;;14.90;6.13;;;6.30;70.50;;;;;;4927790;29;20043;-88
2021/04/16 05:40:24;;;;;;;15.47;5.63;;;6.40;70.60;;;;;;4933390;29;20016;-89
2021/04/16 05:42:50;;;;;;;15.67;5.70;;;6.30;70.60;;;;;;4944473;29;20008;-88
2021/04/16 05:45:16;;;;;;;16.00;5.77;;;6.40;70.70;;;;;;4942526;29;20106;-81
2021/04/16 05:47:42;;;;;;;17.83;5.37;;;6.40;70.60;;;;;;4955477;29;20016;-80
2021/04/16 05:50:09;;;;;;;14.57;5.77;;;6.40;70.70;;;;;;4934076;29;20034;-81
2021/04/16 05:52:35;;;;;;;15.13;5.43;;;6.40;70.60;;;;;;4926046;29;20015;-79
2021/04/16 05:55:00;;;;;;;17.17;5.77;;;6.40;70.50;;;;;;4942825;29;20098;-90
2021/04/16 05:57:26;;;;;;;17.77;6.60;;;6.50;70.60;;;;;;4927594;29;20119;-87
2021/04/16 05:59:52;;;;;;;18.20;6.27;;;6.50;70.50;;;;;;4942401;29;20099;-88
2021/04/16 06:02:28;;;;;;;19.63;5.77;;;6.50;71.10;;;;;;4944701;29;20016;-90
2021/04/16 06:04:55;;;;;;;13.47;6.00;;;6.50;70.60;;;;;;4923657;29;20102;-88
2021/04/16 06:07:21;;;;;;;16.13;6.00;;;6.50;70.50;;;;;;4923509;29;20111;-90
2021/04/16 06:09:47;;;;;;;16.30;6.20;;;6.50;70.50;;;;;;4923941;29;20031;-89
2021/04/16 06:12:13;;;;;;;15.30;5.50;;;6.50;70.40;;;;;;4923327;29;20031;-89
2021/04/16 06:14:42;;;;;;;17.90;5.70;;;6.50;70.50;;;;;;4929628;29;20020;-89
2021/04/16 06:17:09;;;;;;;;;;;6.60;70.60;;;;;;4933435;29;20441;-88
2021/04/16 06:19:34;;;;;;;18.80;6.60;;;6.50;72.20;;;;;;4934182;29;19911;-89
2021/04/16 06:22:00;;;;;;;19.33;6.13;;;6.60;70.60;;;;;;4934735;29;20034;-92
2021/04/16 06:24:25;;;;;;;16.97;5.90;;;6.60;70.50;;;;;;4931129;29;20485;-86
2021/04/16 06:26:51;;;;;;;16.23;5.67;;;6.60;70.40;;;;;;4926794;29;20027;-86
2021/04/16 06:29:17;;;;;;;15.63;6.53;;;6.60;70.30;;;;;;4942890;29;20540;-88
2021/04/16 06:31:42;;;;;;;19.60;6.13;;;6.60;70.20;;;;;;4931155;29;20040;-90
2021/04/16 06:34:08;;;;;;;18.00;6.17;;;6.70;70.20;;;;;;4924295;29;20079;-88
2021/04/16 06:36:33;;;;;;;17.83;5.80;;;6.70;70.20;;;;;;4942495;29;20027;-90
2021/04/16 06:38:59;;;;;;;16.93;5.83;;;6.80;69.90;;;;;;4929919;29;20031;-90
2021/04/16 06:41:29;;;;;;;19.10;6.10;;;6.80;69.70;;;;;;4928470;29;20032;-89
2021/04/16 06:44:01;;;;;;;14.50;5.77;;;6.80;69.60;;;;;;4933436;29;20659;-91
2021/04/16 06:46:35;;;;;;;15.80;6.13;;;6.90;69.60;;;;;;4938064;29;20011;-91
2021/04/16 06:49:10;;;;;;;18.13;5.67;;;6.90;69.60;;;;;;4936313;29;20028;-91
2021/04/16 06:51:52;;;;;;;14.83;5.47;;;6.90;69.50;;;;;;4934983;29;20035;-91
2021/04/16 06:54:24;;;;;;;13.10;5.03;;;7.00;69.50;;;;;;4938013;29;20035;-91
2021/04/16 06:56:52;;;;;;;17.20;6.07;;;7.00;69.30;;;;;;4937524;29;20119;-92
2021/04/16 06:59:25;;;;;;;16.40;5.53;;;7.00;69.30;;;;;;4937188;29;20031;-92
2021/04/16 07:02:06;;;;;;;16.77;5.53;;;7.10;69.40;;;;;;4932540;29;20032;-77
2021/04/16 07:04:54;;;;;;;15.47;5.63;;;7.00;69.40;;;;;;4938363;29;20130;-78
2021/04/16 07:07:45;;;;;;;13.90;5.37;;;7.10;69.30;;;;;;4922877;29;20075;-92
2021/04/16 07:10:21;;;;;;;15.00;5.10;;;7.10;69.30;;;;;;4930330;29;20040;-90
2021/04/16 07:12:50;;;;;;;14.80;5.30;;;7.20;69.00;;;;;;4926272;29;20091;-91
2021/04/16 07:15:40;;;;;;;19.07;6.30;;;7.20;69.00;;;;;;4934573;29;20042;-91
2021/04/16 07:18:06;;;;;;;25.47;5.80;;;7.30;68.90;;;;;;4943134;28;20020;-92
2021/04/16 07:20:33;;;;;;;16.07;5.47;;;7.30;68.80;;;;;;4939232;29;20067;-92
2021/04/16 07:22:59;;;;;;;14.90;5.37;;;7.40;68.60;;;;;;4930517;29;20036;-92
2021/04/16 07:25:38;;;;;;;13.17;4.50;;;7.40;68.50;;;;;;4928005;29;20067;-93
2021/04/16 07:28:09;;;;;;;;;;;7.50;68.30;;;;;;4925416;29;20031;-80
2021/04/16 07:30:44;;;;;;;14.67;5.03;;;7.60;68.00;;;;;;4941341;29;19914;-80
2021/04/16 07:33:46;;;;;;;15.30;5.20;;;7.70;67.80;;;;;;4923398;29;20095;-91
2021/04/16 07:36:40;;;;;;;15.77;5.13;;;7.90;67.80;;;;;;4820760;29;20067;-93
2021/04/16 07:39:11;;;;;;;17.07;5.60;;;8.10;67.30;;;;;;4914910;29;20055;-91
2021/04/16 07:41:46;;;;;;;13.30;5.23;;;8.10;66.80;;;;;;4922924;29;20036;-93
2021/04/16 07:44:26;;;;;;;13.17;4.87;;;8.20;66.50;;;;;;4916596;29;20470;-91
2021/04/16 07:46:55;;;;;;;12.83;4.67;;;8.40;66.50;;;;;;4927349;29;20048;-92
2021/04/16 07:49:55;;;;;;;12.70;4.18;;;8.40;65.80;;;;;;4927434;29;20154;-91
2021/04/16 07:52:42;;;;;;;12.83;4.20;;;8.50;65.40;;;;;;4927334;29;20079;-92
2021/04/16 07:55:19;;;;;;;15.93;4.57;;;8.60;64.30;;;;;;4924770;29;20066;-91
2021/04/16 07:57:59;;;;;;;15.03;4.80;;;8.70;64.80;;;;;;4918519;29;20021;-90
2021/04/16 08:00:38;;;;;;;13.87;4.73;;;8.80;64.60;;;;;;4915896;29;20032;-92
2021/04/16 08:03:26;;;;;;;16.23;4.50;;;8.80;63.80;;;;;;4916944;29;20048;-91
2021/04/16 08:05:55;;;;;;;13.57;4.40;;;8.90;64.20;;;;;;4912384;29;20040;-77
2021/04/16 08:08:25;;;;;;;13.00;3.72;;;9.00;64.40;;;;;;4923256;29;20050;-79
2021/04/16 08:11:11;;;;;;;13.00;4.20;;;9.10;64.10;;;;;;4934298;29;20030;-92
2021/04/16 08:13:44;;;;;;;10.87;3.80;;;9.30;62.80;;;;;;4925213;29;20062;-92
2021/04/16 08:16:16;;;;;;;10.00;3.63;;;9.30;62.40;;;;;;4926204;29;20028;-91
2021/04/16 08:18:47;;;;;;;8.97;3.40;;;9.40;62.00;;;;;;4926829;29;20035;-90
2021/04/16 08:21:21;;;;;;;12.27;3.67;;;9.40;62.40;;;;;;4916772;29;20027;-91
2021/04/16 08:23:55;;;;;;;12.63;3.13;;;9.50;61.70;;;;;;4906768;29;20024;-91
2021/04/16 08:26:26;;;;;;;10.90;3.30;;;9.60;61.90;;;;;;4906237;29;20024;-90
2021/04/16 08:28:57;;;;;;;10.33;3.13;;;9.70;60.10;;;;;;4906995;29;20020;-90
2021/04/16 08:31:30;;;;;;;8.47;3.00;;;9.80;61.40;;;;;;4920533;29;20107;-84
2021/04/16 08:34:06;;;;;;;10.00;3.07;;;9.90;60.20;;;;;;4925278;29;20035;-85
2021/04/16 08:36:38;;;;;;;7.80;2.83;;;10.00;59.80;;;;;;4920872;29;20024;-84
2021/04/16 08:39:22;;;;;;;9.53;2.97;;;10.10;59.60;;;;;;4924018;29;20501;-88
2021/04/16 08:41:58;;;;;;;9.50;3.13;;;10.20;57.10;;;;;;4941443;29;20028;-83
2021/04/16 08:44:27;;;;;;;11.00;3.13;;;10.30;60.00;;;;;;4936199;29;20028;-91
2021/04/16 08:46:55;;;;;;;6.13;2.90;;;10.30;57.90;;;;;;4926873;29;20024;-91
2021/04/16 08:49:34;;;;;;;11.60;3.40;;;10.40;59.90;;;;;;4932826;29;20024;-92
2021/04/16 08:52:10;;;;;;;9.32;3.17;;;10.30;58.50;;;;;;4932726;29;20042;-91
2021/04/16 08:54:37;;;;;;;10.70;3.58;;;10.40;57.50;;;;;;4932974;29;20024;-90
2021/04/16 08:57:26;;;;;;;8.75;3.38;;;10.50;58.80;;;;;;4934612;29;20031;-93
2021/04/16 09:00:05;;;;;;;10.75;3.28;;;10.50;59.00;;;;;;4936414;29;20086;-90
2021/04/16 09:02:44;;;;;;;11.00;3.00;;;10.60;58.90;;;;;;4931996;29;20024;-90
2021/04/16 09:05:13;;;;;;;9.40;2.73;;;10.70;59.30;;;;;;4926452;29;20035;-80
2021/04/16 09:07:42;;;;;;;7.80;2.63;;;10.80;58.70;;;;;;4925350;29;20048;-80
2021/04/16 09:10:31;;;;;;;10.20;2.80;;;10.80;58.00;;;;;;4924879;29;20208;-82
2021/04/16 09:13:10;;;;;;;6.90;2.78;;;10.90;55.20;;;;;;4914937;29;20043;-82
2021/04/16 09:15:35;;;;;;;9.75;2.63;;;11.10;55.40;;;;;;4912220;29;20142;-81
2021/04/16 09:18:01;;;;;;;9.48;3.08;;;11.20;57.00;;;;;;4919197;29;20119;-85
2021/04/16 09:20:32;;;;;;;10.02;2.70;;;11.40;57.80;;;;;;4906573;29;20024;-86
2021/04/16 09:22:58;;;;;;;8.18;2.72;;;11.40;57.50;;;;;;4928730;29;20028;-80
2021/04/16 09:25:29;;;;;;;9.65;3.00;;;11.50;57.10;;;;;;4914311;29;20028;-84
2021/04/16 09:28:21;;;;;;;24.05;3.38;;;11.60;56.00;;;;;;4926501;29;20024;-87
2021/04/16 09:30:51;;;;;;;20.13;2.67;;;11.60;53.40;;;;;;4924639;29;20035;-86
2021/04/16 09:33:38;;;;;;;10.68;2.50;;;11.70;56.70;;;;;;4914100;29;20079;-85
2021/04/16 09:36:06;;;;;;;17.55;2.72;;;11.80;55.90;;;;;;4930094;29;20036;-84
2021/04/16 09:38:35;;;;;;;8.43;2.40;;;12.00;54.90;;;;;;4918784;29;20074;-82
2021/04/16 09:41:19;;;;;;;24.05;2.97;;;12.00;55.50;;;;;;4938616;29;20088;-86
2021/04/16 09:43:51;;;;;;;15.98;2.50;;;12.10;53.50;;;;;;4933953;29;20031;-81
2021/04/16 09:46:33;;;;;;;7.30;2.78;;;12.20;53.40;;;;;;4921442;29;20434;-81
2021/04/16 09:49:24;;;;;;;16.13;3.13;;;12.30;50.10;;;;;;4913456;29;20024;-81
2021/04/16 09:51:55;;;;;;;16.50;2.65;;;12.30;47.10;;;;;;4879682;29;20095;-83
2021/04/16 09:54:21;;;;;;;15.30;3.17;;;12.40;52.90;;;;;;4916446;29;20043;-79
2021/04/16 09:57:02;;;;;;;9.68;2.65;;;12.50;54.20;;;;;;4921712;29;20074;-82
2021/04/16 09:59:33;;;;;;;13.93;2.58;;;12.60;51.10;;;;;;4941037;29;20114;-85
2021/04/16 10:05:10;;;;;;;5.00;2.17;;;12.70;53.30;;;;;;4941414;29;20036;-84
2021/04/16 10:07:51;;;;;;;5.88;2.35;;;12.80;48.30;;;;;;4943184;29;20079;-79
2021/04/16 10:10:42;;;;;;;9.00;2.60;;;12.90;52.40;;;;;;4934606;29;20039;-83
2021/04/16 10:13:20;;;;;;;7.47;2.40;;;12.90;52.30;;;;;;4929544;29;20389;-86
2021/04/16 10:15:49;;;;;;;6.50;2.50;;;12.90;52.80;;;;;;4924318;29;20098;-83
2021/04/16 10:18:22;;;;;;;6.07;2.13;;;12.90;52.50;;;;;;4930503;29;20059;-83
2021/04/16 10:21:14;;;;;;;12.07;2.45;;;12.90;52.50;;;;;;4927960;29;20016;-78
2021/04/16 10:23:43;;;;;;;12.45;2.50;;;13.00;49.90;;;;;;4940518;29;20050;-81
2021/04/16 11:21:18;;;;;;;6.97;2.47;;;13.00;48.00;;;;;;4955986;29;20051;-93
2021/04/16 12:38:37;;;;;;;5.32;2.03;;;14.50;43.80;;;;;;4950580;29;20457;-92
2021/04/16 12:41:21;;;;;;;6.72;2.40;;;14.60;44.40;;;;;;4928755;29;20059;-86
2021/04/16 12:43:49;;;;;;;3.45;2.10;;;14.70;44.00;;;;;;4925163;29;20036;-88
2021/04/16 12:46:18;;;;;;;5.55;2.15;;;15.00;43.50;;;;;;4928963;29;20405;-91
2021/04/16 12:48:44;;;;;;;10.02;2.78;;;15.20;42.90;;;;;;4932092;29;20031;-89
2021/04/16 12:51:11;;;;;;;5.53;2.10;;;15.30;41.60;;;;;;4934362;29;20549;-94
2021/04/16 12:53:36;;;;;;;6.10;2.20;;;15.50;41.40;;;;;;4932822;29;20065;-92
2021/04/16 12:56:04;;;;;;;7.70;2.00;;;15.60;41.10;;;;;;4936666;29;20016;-92
2021/04/16 12:58:32;;;;;;;6.93;2.10;;;15.60;41.10;;;;;;4936967;29;20018;-89
2021/04/16 13:01:01;;;;;;;14.60;2.40;;;15.70;41.40;;;;;;4930785;29;20032;-87
2021/04/16 13:03:35;;;;;;;23.58;3.03;;;15.80;41.90;;;;;;4945260;29;20107;-89
2021/04/16 13:06:02;;;;;;;8.38;2.40;;;15.90;42.00;;;;;;4925262;29;20039;-88
2021/04/16 13:08:28;;;;;;;7.57;2.17;;;16.20;41.30;;;;;;4925406;29;20105;-90
2021/04/16 13:10:54;;;;;;;10.65;2.42;;;16.20;41.60;;;;;;4927004;29;20036;-88
2021/04/16 13:13:19;;;;;;;7.90;2.08;;;16.20;41.50;;;;;;4928107;29;20032;-88
2021/04/16 13:15:45;;;;;;;8.73;2.33;;;16.00;42.10;;;;;;4928675;29;20024;-87
2021/04/16 13:18:34;;;;;;;7.10;2.28;;;15.80;41.90;;;;;;4930382;29;20163;-88
2021/04/16 13:21:00;;;;;;;7.30;2.40;;;15.60;39.80;;;;;;4929555;29;20055;-86
2021/04/16 13:23:25;;;;;;;9.48;2.20;;;15.50;41.40;;;;;;4929741;29;20504;-86
2021/04/16 13:25:51;;;;;;;9.20;2.20;;;15.60;43.30;;;;;;4936821;29;20032;-88
2021/04/16 13:28:17;;;;;;;6.38;2.15;;;15.80;42.90;;;;;;4940874;29;20034;-88
2021/04/16 13:30:42;;;;;;;5.63;2.30;;;16.00;41.80;;;;;;4945889;29;20447;-88
2021/04/16 13:33:18;;;;;;;8.00;2.30;;;16.20;41.60;;;;;;4926992;29;20079;-86
2021/04/16 13:35:47;;;;;;;3.40;1.98;;;16.20;41.10;;;;;;4943233;29;20027;-86
2021/04/16 13:38:21;;;;;;;6.88;2.15;;;16.10;41.50;;;;;;4943096;29;20118;-86
2021/04/16 13:40:47;;;;;;;5.63;2.03;;;16.00;40.60;;;;;;4925992;29;20535;-86
2021/04/16 13:43:13;;;;;;;5.63;2.25;;;15.80;42.20;;;;;;4926279;29;20067;-85
2021/04/16 13:45:39;;;;;;;7.05;2.25;;;15.70;43.10;;;;;;4925969;29;20028;-86
2021/04/16 13:48:06;;;;;;;7.40;2.20;;;15.90;42.90;;;;;;4942263;29;20042;-86
2021/04/16 13:50:32;;;;;;;5.05;2.28;;;16.10;41.70;;;;;;4924261;29;20115;-87
2021/04/16 13:52:58;;;;;;;5.70;2.30;;;16.30;41.00;;;;;;4925057;29;20024;-87
2021/04/16 13:55:24;;;;;;;8.63;2.38;;;16.30;40.60;;;;;;4924794;29;20034;-85
2021/04/16 13:57:50;;;;;;;10.93;2.55;;;16.20;40.70;;;;;;4926351;29;20039;-87
2021/04/16 14:00:20;;;;;;;8.15;2.58;;;16.00;41.30;;;;;;4926306;29;20070;-92
2021/04/16 14:02:49;;;;;;;6.25;2.30;;;16.00;41.80;;;;;;4938322;29;20042;-91
2021/04/16 14:05:23;;;;;;;6.93;2.53;;;15.90;42.40;;;;;;4943391;29;20027;-92
2021/04/16 14:07:50;;;;;;;7.32;2.35;;;15.80;43.20;;;;;;4944861;29;20059;-93
2021/04/16 14:10:19;;;;;;;7.60;2.40;;;15.80;43.00;;;;;;4944573;29;20050;-92
2021/04/16 14:12:45;;;;;;;9.18;2.67;;;15.90;42.80;;;;;;4944934;29;20008;-92
2021/04/16 14:15:11;;;;;;;7.22;2.65;;;16.00;42.30;;;;;;4944858;29;20038;-92
2021/04/16 14:17:44;;;;;;;7.13;2.38;;;15.90;42.80;;;;;;4944443;29;20018;-91
2021/04/16 14:20:19;;;;;;;9.32;2.97;;;15.80;42.80;;;;;;4944746;29;20020;-92
2021/04/16 14:22:47;;;;;;;7.63;2.28;;;15.90;41.80;;;;;;4944398;29;20016;-91
2021/04/16 14:25:30;;;;;;;5.90;2.60;;;16.00;43.20;;;;;;4944764;29;20047;-91
2021/04/16 14:27:55;;;;;;;6.70;2.70;;;16.00;42.10;;;;;;4944675;29;20031;-91
2021/04/16 14:30:30;;;;;;;7.75;2.60;;;16.30;41.50;;;;;;4944658;29;20040;-93
2021/04/16 14:32:58;;;;;;;8.55;2.90;;;15.80;41.60;;;;;;4944639;28;20020;-92
2021/04/16 14:35:30;;;;;;;8.23;2.92;;;15.70;42.20;;;;;;4944616;29;20046;-92
2021/04/16 14:37:56;;;;;;;9.88;2.65;;;15.70;42.60;;;;;;4944657;29;20023;-91
2021/04/16 14:40:24;;;;;;;9.43;2.80;;;15.40;42.70;;;;;;4944623;29;20019;-92
2021/04/16 14:42:50;;;;;;;9.50;2.75;;;15.30;43.10;;;;;;4944241;29;20012;-92
2021/04/16 14:45:19;;;;;;;11.55;2.92;;;15.30;42.90;;;;;;4944549;29;20047;-90
2021/04/16 14:47:45;;;;;;;;;;;15.20;43.00;;;;;;4944216;29;20016;-92
2021/04/16 14:50:13;;;;;;;8.38;2.75;;;15.20;42.50;;;;;;4945175;29;19911;-92
2021/04/16 14:52:39;;;;;;;8.50;2.38;;;15.50;42.80;;;;;;4948066;29;20020;-91
2021/04/16 14:55:12;;;;;;;6.90;2.53;;;15.60;41.90;;;;;;4948479;29;20940;-92
2021/04/16 14:57:40;;;;;;;8.15;3.10;;;15.60;39.30;;;;;;4948198;29;20015;-90
2021/04/16 15:00:19;;;;;;;10.57;3.20;;;15.50;41.00;;;;;;4948345;29;20012;-92
2021/04/16 15:02:44;;;;;;;;;;;15.30;41.20;;;;;;4948356;29;20019;-91
2021/04/16 15:05:11;;;;;;;9.80;3.40;;;15.20;41.10;;;;;;4948119;29;19914;-92
2021/04/16 15:07:52;;;;;;;9.18;3.15;;;15.00;42.00;;;;;;4947755;29;20068;-91
2021/04/16 15:10:28;;;;;;;9.73;3.70;;;15.00;42.50;;;;;;4947955;29;20015;-91
2021/04/16 15:12:54;;;;;;;11.20;3.80;;;15.00;41.20;;;;;;4947717;29;20036;-91
2021/04/16 15:15:32;;;;;;;6.72;2.90;;;14.90;42.60;;;;;;4947663;29;20019;-91
2021/04/16 15:17:59;;;;;;;9.98;2.90;;;14.80;43.00;;;;;;4947909;29;20018;-92
2021/04/16 15:20:28;;;;;;;7.20;2.65;;;14.80;42.90;;;;;;4947963;29;20047;-91
2021/04/16 15:22:55;;;;;;;10.00;2.92;;;14.70;42.50;;;;;;4947651;29;20023;-91
2021/04/16 15:25:21;;;;;;;8.68;2.72;;;14.70;42.90;;;;;;4947801;29;20028;-92
2021/04/16 15:27:50;;;;;;;12.43;2.72;;;14.60;42.90;;;;;;4947821;29;20067;-92
2021/04/16 15:30:21;;;;;;;11.93;2.83;;;14.60;42.80;;;;;;4947951;29;20028;-91
2021/04/16 15:32:48;;;;;;;12.45;3.10;;;14.50;43.30;;;;;;4947683;29;20116;-91
2021/04/16 15:46:24;;;;;;;7.85;3.10;;;14.30;43.40;;;;;;4963797;29;20050;-92
2021/04/16 15:48:50;;;;;;;10.93;3.13;;;14.30;44.30;;;;;;4947224;29;20015;-92
2021/04/16 15:51:21;;;;;;;10.52;3.30;;;14.20;44.40;;;;;;4947357;29;20027;-91
2021/04/16 15:53:49;;;;;;;10.45;2.72;;;14.10;44.40;;;;;;4947241;29;20012;-92
2021/04/16 15:56:16;;;;;;;9.75;3.00;;;14.20;44.10;;;;;;4947299;29;20077;-92
2021/04/16 15:58:42;;;;;;;10.10;2.78;;;14.10;43.80;;;;;;4947174;29;20012;-92
2021/04/16 16:01:12;;;;;;;8.93;3.17;;;14.00;44.00;;;;;;4946862;29;20083;-92
2021/04/16 16:03:38;;;;;;;7.13;2.95;;;14.00;44.30;;;;;;4946858;29;20039;-92
2021/04/16 16:06:04;;;;;;;10.10;3.17;;;13.90;44.20;;;;;;4947142;29;20024;-92
2021/04/16 16:08:30;;;;;;;7.85;2.80;;;13.90;43.50;;;;;;4947069;29;20020;-91
2021/04/16 16:10:56;;;;;;;10.10;3.20;;;13.90;43.50;;;;;;4947085;28;20028;-92
2021/04/16 16:26:43;;;;;;;10.50;3.17;;;13.70;41.70;;;;;;5024873;28;20929;-92
2021/04/16 18:08:58;;;;;;;12.30;3.45;;;12.70;44.20;;;;;;4940756;29;20090;-91
2021/04/16 18:11:26;;;;;;;10.98;3.83;;;12.70;44.50;;;;;;4925614;29;20099;-91
2021/04/16 18:13:52;;;;;;;8.77;3.40;;;12.70;44.60;;;;;;4927699;29;20031;-91
2021/04/16 18:16:19;;;;;;;13.73;3.95;;;12.60;44.60;;;;;;4927864;29;20497;-89
2021/04/16 18:18:44;;;;;;;10.68;3.67;;;12.60;44.80;;;;;;4919732;29;20401;-91
2021/04/16 18:21:13;;;;;;;10.02;3.42;;;12.60;44.90;;;;;;4919606;29;20032;-91
2021/04/16 18:23:44;;;;;;;12.57;3.47;;;12.70;45.00;;;;;;4919335;29;20437;-90
2021/04/16 18:26:13;;;;;;;8.95;3.45;;;12.60;45.10;;;;;;4918737;29;20063;-91
2021/04/16 18:28:38;;;;;;;9.50;3.70;;;12.60;45.30;;;;;;4919275;29;20031;-91
2021/04/16 18:31:05;;;;;;;10.93;3.50;;;12.50;45.40;;;;;;4921196;29;20478;-92
2021/04/16 18:33:31;;;;;;;9.60;3.38;;;12.60;45.30;;;;;;4922968;29;20474;-92
2021/04/16 18:36:03;;;;;;;9.25;3.20;;;12.60;45.20;;;;;;4928672;29;20027;-92
2021/04/16 18:38:43;;;;;;;10.07;3.40;;;12.60;45.10;;;;;;4934700;29;20056;-92
2021/04/16 18:41:18;;;;;;;8.63;3.50;;;12.60;45.30;;;;;;4941580;28;20012;-93
2021/04/16 18:43:56;;;;;;;10.10;3.50;;;12.50;45.00;;;;;;4943740;28;20019;-91
2021/04/16 18:46:25;;;;;;;13.18;3.63;;;12.60;44.10;;;;;;4944496;28;20027;-92
2021/04/16 18:48:51;;;;;;;11.27;3.38;;;12.50;45.30;;;;;;4944695;28;20019;-91
2021/04/16 18:51:22;;;;;;;11.60;3.50;;;12.40;45.60;;;;;;4930210;29;20039;-92
2021/04/16 18:53:58;;;;;;;11.10;3.35;;;12.40;45.50;;;;;;4932394;29;20087;-92
2021/04/16 18:56:26;;;;;;;11.20;3.53;;;12.40;45.40;;;;;;4939245;28;20028;-93
2021/04/16 18:58:52;;;;;;;8.97;3.50;;;12.40;45.60;;;;;;4941050;29;20115;-92
2021/04/16 19:01:22;;;;;;;11.68;3.90;;;12.40;45.90;;;;;;4941808;29;20008;-92
2021/04/16 19:03:47;;;;;;;10.38;3.67;;;12.50;45.80;;;;;;4940129;29;20091;-92
2021/04/16 19:06:14;;;;;;;10.63;3.53;;;12.40;45.60;;;;;;4940052;29;20032;-92
2021/04/16 19:08:41;;;;;;;11.43;3.70;;;12.40;45.90;;;;;;4957885;29;20120;-92
2021/04/16 19:11:09;;;;;;;9.18;3.50;;;12.40;45.80;;;;;;4961264;29;20023;-92
2021/04/16 19:13:35;;;;;;;8.82;3.40;;;12.40;46.00;;;;;;4961203;29;20046;-92
2021/04/16 19:16:01;;;;;;;10.60;3.67;;;12.30;46.10;;;;;;4963324;28;20030;-92
2021/04/16 19:18:27;;;;;;;11.73;3.50;;;12.40;46.20;;;;;;4963688;28;20019;-91
2021/04/16 19:20:58;;;;;;;9.63;3.38;;;12.30;46.40;;;;;;4963485;28;20015;-92
2021/04/16 19:23:33;;;;;;;10.07;3.60;;;12.30;46.30;;;;;;4962882;29;20019;-92
2021/04/16 19:26:03;;;;;;;9.98;3.78;;;12.30;46.20;;;;;;4960758;29;20087;-93
2021/04/16 19:28:29;;;;;;;10.38;3.95;;;12.30;46.40;;;;;;4961392;29;20039;-91
2021/04/16 19:31:00;;;;;;;9.57;3.50;;;12.30;46.40;;;;;;4960963;29;20031;-92
2021/04/16 19:33:28;;;;;;;8.98;3.72;;;12.20;46.40;;;;;;4960513;29;20032;-92
2021/04/16 19:35:58;;;;;;;10.05;3.47;;;12.20;46.60;;;;;;4957737;29;20031;-92
2021/04/16 19:38:25;;;;;;;8.32;3.20;;;12.20;46.60;;;;;;4958203;29;20023;-92
2021/04/16 19:40:55;;;;;;;10.77;3.38;;;12.10;46.80;;;;;;4954837;29;20024;-92
2021/04/16 19:43:23;;;;;;;12.45;3.13;;;12.10;46.80;;;;;;4955422;29;20038;-93
2021/04/16 19:45:50;;;;;;;10.45;3.20;;;12.10;47.00;;;;;;4953989;29;20027;-93
2021/04/16 20:17:52;;;;;;;8.40;2.67;;;11.70;47.30;;;;;;4975107;29;20082;-92
2021/04/16 20:20:27;;;;;;;5.90;2.50;;;11.70;47.50;;;;;;4958485;29;20038;-93
2021/04/16 20:22:54;;;;;;;10.70;2.67;;;11.70;47.40;;;;;;4953927;29;20034;-93
2021/04/16 20:25:22;;;;;;;7.78;2.40;;;11.70;47.40;;;;;;4953869;29;20035;-92
2021/04/16 20:27:47;;;;;;;7.28;2.70;;;11.70;47.50;;;;;;4954026;29;20032;-91
2021/04/16 20:30:18;;;;;;;9.68;2.60;;;11.70;47.70;;;;;;4952991;29;20047;-92
2021/04/16 20:32:44;;;;;;;7.45;2.63;;;11.70;47.60;;;;;;4951735;29;20027;-93
2021/04/16 20:35:29;;;;;;;7.38;2.28;;;11.70;47.40;;;;;;4952082;29;20093;-93
2021/04/16 20:37:56;;;;;;;7.40;2.40;;;11.60;47.30;;;;;;4952626;29;20078;-92
2021/04/16 20:40:31;;;;;;;8.55;2.33;;;11.60;47.70;;;;;;4952286;29;20036;-92
2021/04/16 20:42:59;;;;;;;12.50;2.70;;;11.60;47.80;;;;;;4953795;29;20035;-92
2021/04/16 20:45:26;;;;;;;7.10;2.30;;;11.50;47.90;;;;;;4953467;29;20114;-92
2021/04/16 20:47:53;;;;;;;8.95;2.20;;;11.50;48.00;;;;;;4951975;29;20042;-92
2021/04/16 20:50:20;;;;;;;6.30;2.42;;;11.50;48.10;;;;;;4952227;29;20028;-92
2021/04/16 20:52:47;;;;;;;7.47;2.40;;;11.40;48.10;;;;;;4953298;29;20028;-92
2021/04/16 20:55:26;;;;;;;8.20;2.38;;;11.50;48.20;;;;;;4952363;29;20044;-92
2021/04/16 20:57:53;;;;;;;7.13;2.42;;;11.40;48.30;;;;;;4951959;29;20031;-92
2021/04/16 21:00:35;;;;;;;9.52;3.03;;;11.30;48.50;;;;;;4953301;29;20076;-93
2021/04/16 21:03:10;;;;;;;10.20;3.00;;;11.30;48.70;;;;;;4952956;29;20027;-92
2021/04/16 21:05:57;;;;;;;10.63;2.80;;;11.30;48.70;;;;;;4953771;29;20062;-92
2021/04/16 21:08:30;;;;;;;9.07;3.15;;;11.20;48.80;;;;;;4952952;29;20047;-93
2021/04/16 21:10:58;;;;;;;7.82;3.03;;;11.20;48.90;;;;;;4938649;29;20023;-92
2021/04/16 21:13:25;;;;;;;7.18;2.72;;;11.20;49.10;;;;;;4953656;29;20039;-92
2021/04/16 21:15:51;;;;;;;6.97;2.75;;;11.20;49.20;;;;;;4952132;29;20023;-92
2021/04/16 21:18:31;;;;;;;9.52;2.78;;;11.10;49.20;;;;;;4952865;29;20027;-92
2021/04/16 21:21:04;;;;;;;9.35;2.88;;;11.20;49.10;;;;;;4952650;29;20027;-92
2021/04/16 21:23:37;;;;;;;8.32;2.92;;;11.10;49.90;;;;;;4953085;29;20034;-93
2021/04/16 21:26:07;;;;;;;8.63;2.90;;;11.10;49.40;;;;;;4952549;29;20023;-93
2021/04/16 21:28:34;;;;;;;10.57;3.15;;;11.10;49.50;;;;;;4952861;29;20042;-93
2021/04/16 21:31:00;;;;;;;8.40;2.90;;;11.00;49.50;;;;;;4953975;29;20037;-92
2021/04/16 21:33:40;;;;;;;8.60;3.03;;;11.00;49.70;;;;;;4951776;29;20026;-93
2021/04/16 21:36:07;;;;;;;9.20;2.80;;;11.00;49.90;;;;;;4957583;29;20031;-92
2021/04/16 21:38:34;;;;;;;9.18;3.10;;;10.90;50.10;;;;;;4960869;29;20034;-92
2021/04/16 21:41:16;;;;;;;10.45;3.63;;;10.80;50.20;;;;;;4961415;29;20078;-92
2021/04/16 21:43:45;;;;;;;10.48;3.10;;;10.80;50.30;;;;;;4953574;29;20118;-92
2021/04/16 21:46:22;;;;;;;14.30;3.47;;;10.80;50.40;;;;;;4952649;29;20031;-93
2021/04/16 21:48:54;;;;;;;12.85;3.47;;;10.80;50.60;;;;;;4952375;29;20027;-92
2021/04/16 21:51:40;;;;;;;11.55;3.60;;;10.80;50.70;;;;;;4952665;29;20035;-92
2021/04/16 21:54:25;;;;;;;10.95;3.15;;;10.80;50.80;;;;;;4973750;29;20023;-92
2021/04/16 21:56:52;;;;;;;11.77;3.80;;;10.70;51.10;;;;;;4963895;28;20012;-92
2021/04/16 21:59:18;;;;;;;11.52;3.22;;;10.70;51.20;;;;;;4964125;28;20029;-90
2021/04/16 22:01:51;;;;;;;9.93;3.38;;;10.60;51.40;;;;;;4963891;29;20041;-92
2021/04/16 22:04:18;;;;;;;10.93;3.70;;;10.60;51.60;;;;;;4953768;29;20033;-93
2021/04/16 22:07:00;;;;;;;10.57;4.03;;;10.50;51.80;;;;;;4953081;29;20027;-93
2021/04/16 22:09:44;;;;;;;12.02;3.55;;;10.40;52.20;;;;;;4952497;29;20046;-92
2021/04/16 22:12:22;;;;;;;9.05;3.28;;;10.40;52.20;;;;;;4951127;29;20039;-92
2021/04/16 22:14:52;;;;;;;10.40;3.45;;;10.40;52.50;;;;;;4951415;29;20028;-93
2021/04/16 22:17:24;;;;;;;10.63;3.40;;;10.40;52.80;;;;;;4952075;29;20027;-92
2021/04/16 22:19:50;;;;;;;9.25;3.20;;;10.30;53.30;;;;;;4950368;29;20027;-93
2021/04/16 22:22:21;;;;;;;12.48;3.83;;;10.20;53.00;;;;;;4951589;29;20137;-92
2021/04/16 22:25:09;;;;;;;8.25;3.25;;;10.20;53.30;;;;;;4952762;29;20050;-93
2021/04/16 22:27:35;;;;;;;11.50;3.60;;;10.10;53.40;;;;;;4950795;29;20027;-93
2021/04/16 22:30:27;;;;;;;16.33;4.60;;;10.10;54.10;;;;;;4949316;29;20027;-92
2021/04/16 22:33:01;;;;;;;11.82;3.65;;;10.10;53.90;;;;;;4950181;29;20448;-93
2021/04/16 22:35:36;;;;;;;11.75;3.60;;;10.10;54.00;;;;;;4948924;29;20031;-92
2021/04/16 22:38:04;;;;;;;11.80;3.75;;;10.10;54.20;;;;;;4949850;29;20027;-92
2021/04/16 22:40:31;;;;;;;12.95;3.92;;;10.00;54.20;;;;;;4948961;29;20032;-92
2021/04/16 22:43:17;;;;;;;10.25;3.33;;;10.10;54.30;;;;;;4949777;29;20027;-92
2021/04/16 22:45:45;;;;;;;13.98;4.05;;;10.10;54.30;;;;;;4949280;29;20055;-93
2021/04/16 22:48:26;;;;;;;12.82;3.80;;;10.10;54.60;;;;;;4949624;29;20030;-92
2021/04/16 22:50:54;;;;;;;12.45;3.70;;;10.00;54.80;;;;;;4947728;29;20096;-92
2021/04/16 22:53:38;;;;;;;15.00;4.25;;;10.00;55.40;;;;;;4948728;29;20385;-92
2021/04/16 22:56:08;;;;;;;10.52;3.58;;;10.00;55.10;;;;;;4948310;29;20038;-93
2021/04/16 22:58:34;;;;;;;13.05;3.97;;;9.90;55.10;;;;;;4948423;29;20455;-92